sensor_id;sensor_type;location;lat;lon;timestamp;P1;durP1;ratioP1;P2;durP2;ratioP2
6255;SDS011;3161;48.794;9.784;2023-05-23T00:01:03;13.37;;;8.60;;
6255;SDS011;3161;48.794;9.784;2023-05-23T00:03:32;21.03;;;9.13;;
6255;SDS011;3161;48.794;9.784;2023-05-23T00:06:00;14.43;;;9.70;;
6255;SDS011;3161;48.794;9.784;2023-05-23T00:08:29;15.97;;;8.63;;
6255;SDS011;3161;48.794;9.784;2023-05-23T00:10:56;14.27;;;8.27;;
6255;SDS011;3161;48.794;9.784;2023-05-23T00:13:24;12.80;;;8.70;;
6255;SDS011;3161;48.794;9.784;2023-05-23T00:15:52;11.47;;;9.47;;
6255;SDS011;3161;48.794;9.784;2023-05-23T00:18:19;10.90;;;9.03;;
6255;SDS011;3161;48.794;9.784;2023-05-23T00:20:48;14.03;;;9.43;;
6255;SDS011;3161;48.794;9.784;2023-05-23T00:23:16;11.50;;;9.90;;
6255;SDS011;3161;48.794;9.784;2023-05-23T00:25:45;12.60;;;9.03;;
6255;SDS011;3161;48.794;9.784;2023-05-23T00:28:15;11.33;;;9.23;;
6255;SDS011;3161;48.794;9.784;2023-05-23T00:30:42;14.77;;;9.30;;
6255;SDS011;3161;48.794;9.784;2023-05-23T00:33:10;15.53;;;9.90;;
6255;SDS011;3161;48.794;9.784;2023-05-23T00:35:39;14.77;;;9.23;;
6255;SDS011;3161;48.794;9.784;2023-05-23T00:38:07;11.87;;;9.47;;
6255;SDS011;3161;48.794;9.784;2023-05-23T00:40:36;14.07;;;9.70;;
6255;SDS011;3161;48.794;9.784;2023-05-23T00:43:03;11.00;;;9.30;;
6255;SDS011;3161;48.794;9.784;2023-05-23T00:45:33;12.93;;;9.93;;
6255;SDS011;3161;48.794;9.784;2023-05-23T00:48:00;11.37;;;9.30;;
6255;SDS011;3161;48.794;9.784;2023-05-23T00:50:30;11.20;;;10.00;;
6255;SDS011;3161;48.794;9.784;2023-05-23T00:52:59;18.77;;;9.70;;
6255;SDS011;3161;48.794;9.784;2023-05-23T00:55:27;10.57;;;9.13;;
6255;SDS011;3161;48.794;9.784;2023-05-23T00:57:55;12.53;;;9.43;;
6255;SDS011;3161;48.794;9.784;2023-05-23T01:00:23;10.67;;;9.23;;
6255;SDS011;3161;48.794;9.784;2023-05-23T01:02:51;10.23;;;8.43;;
6255;SDS011;3161;48.794;9.784;2023-05-23T01:05:20;10.20;;;8.40;;
6255;SDS011;3161;48.794;9.784;2023-05-23T01:07:50;10.97;;;9.20;;
6255;SDS011;3161;48.794;9.784;2023-05-23T01:10:18;14.00;;;9.67;;
6255;SDS011;3161;48.794;9.784;2023-05-23T01:18:45;17.37;;;8.40;;
6255;SDS011;3161;48.794;9.784;2023-05-23T01:21:16;8.97;;;8.07;;
6255;SDS011;3161;48.794;9.784;2023-05-23T01:28:59;11.90;;;8.67;;
6255;SDS011;3161;48.794;9.784;2023-05-23T01:31:32;10.50;;;8.73;;
6255;SDS011;3161;48.794;9.784;2023-05-23T01:34:00;14.50;;;8.60;;
6255;SDS011;3161;48.794;9.784;2023-05-23T01:36:31;10.77;;;8.83;;
6255;SDS011;3161;48.794;9.784;2023-05-23T01:39:02;11.40;;;9.30;;
6255;SDS011;3161;48.794;9.784;2023-05-23T01:41:31;11.70;;;8.97;;
6255;SDS011;3161;48.794;9.784;2023-05-23T01:43:58;11.50;;;9.63;;
6255;SDS011;3161;48.794;9.784;2023-05-23T01:46:26;10.77;;;9.03;;
6255;SDS011;3161;48.794;9.784;2023-05-23T01:48:55;9.80;;;8.37;;
6255;SDS011;3161;48.794;9.784;2023-05-23T01:51:24;9.30;;;8.40;;
6255;SDS011;3161;48.794;9.784;2023-05-23T01:53:53;9.43;;;8.47;;
6255;SDS011;3161;48.794;9.784;2023-05-23T01:56:21;11.87;;;9.07;;
6255;SDS011;3161;48.794;9.784;2023-05-23T01:58:49;11.20;;;9.63;;
6255;SDS011;3161;48.794;9.784;2023-05-23T02:01:17;14.03;;;8.90;;
6255;SDS011;3161;48.794;9.784;2023-05-23T02:03:45;11.43;;;9.10;;
6255;SDS011;3161;48.794;9.784;2023-05-23T02:06:13;11.93;;;8.40;;
6255;SDS011;3161;48.794;9.784;2023-05-23T02:08:40;10.87;;;9.73;;
6255;SDS011;3161;48.794;9.784;2023-05-23T02:11:08;12.40;;;8.63;;
6255;SDS011;3161;48.794;9.784;2023-05-23T02:13:35;10.13;;;8.80;;
6255;SDS011;3161;48.794;9.784;2023-05-23T02:16:03;9.80;;;8.80;;
6255;SDS011;3161;48.794;9.784;2023-05-23T02:18:31;11.37;;;9.33;;
6255;SDS011;3161;48.794;9.784;2023-05-23T02:20:58;12.00;;;9.30;;
6255;SDS011;3161;48.794;9.784;2023-05-23T02:23:26;11.00;;;9.17;;
6255;SDS011;3161;48.794;9.784;2023-05-23T02:25:53;11.23;;;9.20;;
6255;SDS011;3161;48.794;9.784;2023-05-23T02:28:21;10.70;;;8.67;;
6255;SDS011;3161;48.794;9.784;2023-05-23T02:30:49;12.30;;;8.47;;
6255;SDS011;3161;48.794;9.784;2023-05-23T02:33:16;10.10;;;8.60;;
6255;SDS011;3161;48.794;9.784;2023-05-23T02:35:44;10.73;;;9.20;;
6255;SDS011;3161;48.794;9.784;2023-05-23T02:38:13;13.80;;;9.47;;
6255;SDS011;3161;48.794;9.784;2023-05-23T02:40:41;11.17;;;9.03;;
6255;SDS011;3161;48.794;9.784;2023-05-23T02:43:09;12.00;;;8.63;;
6255;SDS011;3161;48.794;9.784;2023-05-23T02:45:36;12.20;;;10.10;;
6255;SDS011;3161;48.794;9.784;2023-05-23T02:48:04;12.77;;;8.70;;
6255;SDS011;3161;48.794;9.784;2023-05-23T02:50:31;20.77;;;9.37;;
6255;SDS011;3161;48.794;9.784;2023-05-23T02:52:59;12.53;;;9.60;;
6255;SDS011;3161;48.794;9.784;2023-05-23T02:55:26;11.60;;;9.03;;
6255;SDS011;3161;48.794;9.784;2023-05-23T02:57:54;13.57;;;8.77;;
6255;SDS011;3161;48.794;9.784;2023-05-23T03:00:21;12.27;;;9.37;;
6255;SDS011;3161;48.794;9.784;2023-05-23T03:02:49;16.23;;;8.97;;
6255;SDS011;3161;48.794;9.784;2023-05-23T03:05:17;13.77;;;9.87;;
6255;SDS011;3161;48.794;9.784;2023-05-23T03:07:44;15.67;;;11.20;;
6255;SDS011;3161;48.794;9.784;2023-05-23T03:10:12;15.20;;;11.30;;
6255;SDS011;3161;48.794;9.784;2023-05-23T03:12:40;21.23;;;12.03;;
6255;SDS011;3161;48.794;9.784;2023-05-23T03:15:08;14.90;;;10.33;;
6255;SDS011;3161;48.794;9.784;2023-05-23T03:17:36;14.60;;;10.47;;
6255;SDS011;3161;48.794;9.784;2023-05-23T03:20:05;15.43;;;10.07;;
6255;SDS011;3161;48.794;9.784;2023-05-23T03:22:34;11.33;;;9.10;;
6255;SDS011;3161;48.794;9.784;2023-05-23T03:25:02;38.80;;;24.17;;
6255;SDS011;3161;48.794;9.784;2023-05-23T03:27:30;44.00;;;27.90;;
6255;SDS011;3161;48.794;9.784;2023-05-23T03:29:58;52.73;;;30.13;;
6255;SDS011;3161;48.794;9.784;2023-05-23T03:32:25;58.13;;;29.90;;
6255;SDS011;3161;48.794;9.784;2023-05-23T03:34:53;57.47;;;30.23;;
6255;SDS011;3161;48.794;9.784;2023-05-23T03:37:21;51.93;;;28.17;;
6255;SDS011;3161;48.794;9.784;2023-05-23T03:39:48;56.53;;;27.97;;
6255;SDS011;3161;48.794;9.784;2023-05-23T03:42:16;44.50;;;26.53;;
6255;SDS011;3161;48.794;9.784;2023-05-23T03:44:44;48.67;;;27.67;;
6255;SDS011;3161;48.794;9.784;2023-05-23T03:47:11;53.97;;;29.80;;
6255;SDS011;3161;48.794;9.784;2023-05-23T03:49:39;53.80;;;31.50;;
6255;SDS011;3161;48.794;9.784;2023-05-23T03:52:06;64.63;;;34.97;;
6255;SDS011;3161;48.794;9.784;2023-05-23T03:54:34;72.40;;;36.97;;
6255;SDS011;3161;48.794;9.784;2023-05-23T03:57:01;75.03;;;37.60;;
6255;SDS011;3161;48.794;9.784;2023-05-23T03:59:29;88.20;;;39.83;;
6255;SDS011;3161;48.794;9.784;2023-05-23T04:01:57;71.40;;;37.97;;
6255;SDS011;3161;48.794;9.784;2023-05-23T04:04:26;85.93;;;40.43;;
6255;SDS011;3161;48.794;9.784;2023-05-23T04:06:55;82.80;;;38.10;;
6255;SDS011;3161;48.794;9.784;2023-05-23T04:09:23;86.10;;;39.40;;
6255;SDS011;3161;48.794;9.784;2023-05-23T04:11:50;79.33;;;39.20;;
6255;SDS011;3161;48.794;9.784;2023-05-23T04:14:18;77.00;;;40.23;;
6255;SDS011;3161;48.794;9.784;2023-05-23T04:16:47;79.50;;;39.57;;
6255;SDS011;3161;48.794;9.784;2023-05-23T04:19:14;83.37;;;40.90;;
6255;SDS011;3161;48.794;9.784;2023-05-23T04:21:42;81.13;;;40.83;;
6255;SDS011;3161;48.794;9.784;2023-05-23T04:24:10;80.23;;;41.17;;
6255;SDS011;3161;48.794;9.784;2023-05-23T04:26:37;84.03;;;41.67;;
6255;SDS011;3161;48.794;9.784;2023-05-23T04:29:05;88.97;;;41.33;;
6255;SDS011;3161;48.794;9.784;2023-05-23T04:31:32;77.73;;;41.07;;
6255;SDS011;3161;48.794;9.784;2023-05-23T04:34:00;88.87;;;41.60;;
6255;SDS011;3161;48.794;9.784;2023-05-23T04:36:28;86.67;;;43.37;;
6255;SDS011;3161;48.794;9.784;2023-05-23T04:38:56;92.73;;;41.73;;
6255;SDS011;3161;48.794;9.784;2023-05-23T04:41:23;94.33;;;42.57;;
6255;SDS011;3161;48.794;9.784;2023-05-23T04:43:51;95.73;;;43.33;;
6255;SDS011;3161;48.794;9.784;2023-05-23T04:46:19;89.37;;;43.30;;
6255;SDS011;3161;48.794;9.784;2023-05-23T04:48:51;94.00;;;44.93;;
6255;SDS011;3161;48.794;9.784;2023-05-23T04:51:20;95.03;;;41.67;;
6255;SDS011;3161;48.794;9.784;2023-05-23T04:53:48;84.93;;;42.37;;
6255;SDS011;3161;48.794;9.784;2023-05-23T04:56:16;90.60;;;42.43;;
6255;SDS011;3161;48.794;9.784;2023-05-23T04:58:45;81.80;;;42.53;;
6255;SDS011;3161;48.794;9.784;2023-05-23T05:01:14;88.73;;;43.53;;
6255;SDS011;3161;48.794;9.784;2023-05-23T05:03:41;87.70;;;44.40;;
6255;SDS011;3161;48.794;9.784;2023-05-23T05:06:09;94.23;;;44.40;;
6255;SDS011;3161;48.794;9.784;2023-05-23T05:08:36;86.67;;;43.80;;
6255;SDS011;3161;48.794;9.784;2023-05-23T05:11:05;90.40;;;45.13;;
6255;SDS011;3161;48.794;9.784;2023-05-23T05:13:33;96.77;;;44.60;;
6255;SDS011;3161;48.794;9.784;2023-05-23T05:16:00;98.43;;;45.27;;
6255;SDS011;3161;48.794;9.784;2023-05-23T05:18:28;94.57;;;47.43;;
6255;SDS011;3161;48.794;9.784;2023-05-23T05:20:56;93.70;;;45.87;;
6255;SDS011;3161;48.794;9.784;2023-05-23T05:23:24;79.23;;;44.07;;
6255;SDS011;3161;48.794;9.784;2023-05-23T05:25:54;96.93;;;47.30;;
6255;SDS011;3161;48.794;9.784;2023-05-23T05:28:22;101.70;;;46.87;;
6255;SDS011;3161;48.794;9.784;2023-05-23T05:30:50;85.93;;;44.13;;
6255;SDS011;3161;48.794;9.784;2023-05-23T05:33:19;93.67;;;45.97;;
6255;SDS011;3161;48.794;9.784;2023-05-23T05:35:50;91.97;;;45.60;;
6255;SDS011;3161;48.794;9.784;2023-05-23T05:38:18;97.73;;;48.57;;
6255;SDS011;3161;48.794;9.784;2023-05-23T05:40:47;101.37;;;50.33;;
6255;SDS011;3161;48.794;9.784;2023-05-23T05:43:15;100.23;;;48.27;;
6255;SDS011;3161;48.794;9.784;2023-05-23T05:45:42;96.30;;;48.30;;
6255;SDS011;3161;48.794;9.784;2023-05-23T05:48:10;99.17;;;49.73;;
6255;SDS011;3161;48.794;9.784;2023-05-23T05:50:38;104.00;;;49.50;;
6255;SDS011;3161;48.794;9.784;2023-05-23T05:53:06;92.73;;;49.27;;
6255;SDS011;3161;48.794;9.784;2023-05-23T05:55:34;95.13;;;48.33;;
6255;SDS011;3161;48.794;9.784;2023-05-23T05:58:02;88.73;;;48.97;;
6255;SDS011;3161;48.794;9.784;2023-05-23T06:00:30;93.80;;;47.90;;
6255;SDS011;3161;48.794;9.784;2023-05-23T06:03:01;97.17;;;48.90;;
6255;SDS011;3161;48.794;9.784;2023-05-23T06:05:28;92.30;;;47.50;;
6255;SDS011;3161;48.794;9.784;2023-05-23T06:07:56;92.80;;;48.47;;
6255;SDS011;3161;48.794;9.784;2023-05-23T06:10:23;95.97;;;50.33;;
6255;SDS011;3161;48.794;9.784;2023-05-23T06:12:51;95.63;;;46.13;;
6255;SDS011;3161;48.794;9.784;2023-05-23T06:15:19;89.87;;;46.37;;
6255;SDS011;3161;48.794;9.784;2023-05-23T06:17:46;86.13;;;48.17;;
6255;SDS011;3161;48.794;9.784;2023-05-23T06:20:14;89.50;;;46.20;;
6255;SDS011;3161;48.794;9.784;2023-05-23T06:22:41;87.47;;;46.93;;
6255;SDS011;3161;48.794;9.784;2023-05-23T06:25:09;89.40;;;46.10;;
6255;SDS011;3161;48.794;9.784;2023-05-23T06:27:37;87.50;;;42.60;;
6255;SDS011;3161;48.794;9.784;2023-05-23T06:30:05;78.07;;;43.90;;
6255;SDS011;3161;48.794;9.784;2023-05-23T06:32:33;67.17;;;35.43;;
6255;SDS011;3161;48.794;9.784;2023-05-23T06:35:01;50.93;;;32.17;;
6255;SDS011;3161;48.794;9.784;2023-05-23T06:37:28;57.73;;;30.60;;
6255;SDS011;3161;48.794;9.784;2023-05-23T06:39:56;51.23;;;31.43;;
6255;SDS011;3161;48.794;9.784;2023-05-23T06:42:23;45.70;;;27.10;;
6255;SDS011;3161;48.794;9.784;2023-05-23T06:44:52;31.27;;;23.20;;
6255;SDS011;3161;48.794;9.784;2023-05-23T06:47:20;33.33;;;22.63;;
6255;SDS011;3161;48.794;9.784;2023-05-23T06:49:48;30.07;;;20.20;;
6255;SDS011;3161;48.794;9.784;2023-05-23T06:52:15;26.77;;;18.83;;
6255;SDS011;3161;48.794;9.784;2023-05-23T06:54:43;28.53;;;19.60;;
6255;SDS011;3161;48.794;9.784;2023-05-23T06:57:10;31.57;;;22.00;;
6255;SDS011;3161;48.794;9.784;2023-05-23T06:59:38;24.97;;;18.00;;
6255;SDS011;3161;48.794;9.784;2023-05-23T07:02:05;29.93;;;20.13;;
6255;SDS011;3161;48.794;9.784;2023-05-23T07:04:33;26.50;;;19.63;;
6255;SDS011;3161;48.794;9.784;2023-05-23T07:07:01;27.03;;;19.00;;
6255;SDS011;3161;48.794;9.784;2023-05-23T07:09:28;27.27;;;19.40;;
6255;SDS011;3161;48.794;9.784;2023-05-23T07:11:56;25.57;;;18.77;;
6255;SDS011;3161;48.794;9.784;2023-05-23T07:14:23;27.13;;;18.67;;
6255;SDS011;3161;48.794;9.784;2023-05-23T07:16:51;23.03;;;18.17;;
6255;SDS011;3161;48.794;9.784;2023-05-23T07:19:18;23.60;;;18.70;;
6255;SDS011;3161;48.794;9.784;2023-05-23T07:21:46;22.30;;;18.13;;
6255;SDS011;3161;48.794;9.784;2023-05-23T07:24:13;22.80;;;17.20;;
6255;SDS011;3161;48.794;9.784;2023-05-23T07:26:41;21.27;;;16.27;;
6255;SDS011;3161;48.794;9.784;2023-05-23T07:29:08;24.70;;;19.10;;
6255;SDS011;3161;48.794;9.784;2023-05-23T07:31:36;23.00;;;17.77;;
6255;SDS011;3161;48.794;9.784;2023-05-23T07:34:03;26.30;;;18.00;;
6255;SDS011;3161;48.794;9.784;2023-05-23T07:36:31;24.80;;;18.23;;
6255;SDS011;3161;48.794;9.784;2023-05-23T07:41:49;26.10;;;17.77;;
6255;SDS011;3161;48.794;9.784;2023-05-23T07:44:17;20.73;;;17.13;;
6255;SDS011;3161;48.794;9.784;2023-05-23T07:46:45;24.47;;;18.50;;
6255;SDS011;3161;48.794;9.784;2023-05-23T07:49:12;23.07;;;16.33;;
6255;SDS011;3161;48.794;9.784;2023-05-23T07:51:40;21.63;;;16.43;;
6255;SDS011;3161;48.794;9.784;2023-05-23T07:54:07;21.90;;;16.63;;
6255;SDS011;3161;48.794;9.784;2023-05-23T07:56:35;21.77;;;16.97;;
6255;SDS011;3161;48.794;9.784;2023-05-23T07:59:04;20.93;;;15.97;;
6255;SDS011;3161;48.794;9.784;2023-05-23T08:01:33;20.67;;;16.07;;
6255;SDS011;3161;48.794;9.784;2023-05-23T08:04:01;22.23;;;15.73;;
6255;SDS011;3161;48.794;9.784;2023-05-23T08:06:28;25.37;;;16.57;;
6255;SDS011;3161;48.794;9.784;2023-05-23T08:08:56;20.07;;;15.60;;
6255;SDS011;3161;48.794;9.784;2023-05-23T08:11:24;23.47;;;17.57;;
6255;SDS011;3161;48.794;9.784;2023-05-23T08:13:53;28.60;;;18.70;;
6255;SDS011;3161;48.794;9.784;2023-05-23T08:16:21;25.00;;;17.47;;
6255;SDS011;3161;48.794;9.784;2023-05-23T08:18:48;20.60;;;16.97;;
6255;SDS011;3161;48.794;9.784;2023-05-23T08:21:16;26.80;;;18.43;;
6255;SDS011;3161;48.794;9.784;2023-05-23T08:23:44;34.23;;;26.97;;
6255;SDS011;3161;48.794;9.784;2023-05-23T08:26:11;25.57;;;18.33;;
6255;SDS011;3161;48.794;9.784;2023-05-23T08:28:40;26.50;;;18.10;;
6255;SDS011;3161;48.794;9.784;2023-05-23T08:31:08;32.87;;;19.40;;
6255;SDS011;3161;48.794;9.784;2023-05-23T08:33:36;27.67;;;19.43;;
6255;SDS011;3161;48.794;9.784;2023-05-23T08:36:03;32.10;;;20.47;;
6255;SDS011;3161;48.794;9.784;2023-05-23T08:38:31;34.40;;;24.60;;
6255;SDS011;3161;48.794;9.784;2023-05-23T08:40:59;34.07;;;24.70;;
6255;SDS011;3161;48.794;9.784;2023-05-23T08:43:27;34.33;;;24.50;;
6255;SDS011;3161;48.794;9.784;2023-05-23T08:45:56;35.23;;;24.90;;
6255;SDS011;3161;48.794;9.784;2023-05-23T08:48:23;32.67;;;23.97;;
6255;SDS011;3161;48.794;9.784;2023-05-23T08:50:54;34.70;;;23.07;;
6255;SDS011;3161;48.794;9.784;2023-05-23T08:53:24;31.97;;;23.63;;
6255;SDS011;3161;48.794;9.784;2023-05-23T08:55:54;31.20;;;22.90;;
6255;SDS011;3161;48.794;9.784;2023-05-23T08:58:24;33.83;;;23.33;;
6255;SDS011;3161;48.794;9.784;2023-05-23T09:00:54;29.97;;;23.57;;
6255;SDS011;3161;48.794;9.784;2023-05-23T09:03:21;30.83;;;23.23;;
6255;SDS011;3161;48.794;9.784;2023-05-23T09:05:52;33.87;;;23.20;;
6255;SDS011;3161;48.794;9.784;2023-05-23T09:08:20;34.80;;;24.10;;
6255;SDS011;3161;48.794;9.784;2023-05-23T09:10:49;28.20;;;22.63;;
6255;SDS011;3161;48.794;9.784;2023-05-23T09:13:17;29.10;;;23.07;;
6255;SDS011;3161;48.794;9.784;2023-05-23T09:21:04;24.50;;;20.00;;
6255;SDS011;3161;48.794;9.784;2023-05-23T09:23:34;31.83;;;21.30;;
6255;SDS011;3161;48.794;9.784;2023-05-23T09:26:02;27.13;;;20.63;;
6255;SDS011;3161;48.794;9.784;2023-05-23T09:28:32;30.53;;;21.13;;
6255;SDS011;3161;48.794;9.784;2023-05-23T09:31:00;29.53;;;18.90;;
6255;SDS011;3161;48.794;9.784;2023-05-23T09:33:42;26.97;;;19.30;;
6255;SDS011;3161;48.794;9.784;2023-05-23T09:36:07;27.40;;;19.37;;
6255;SDS011;3161;48.794;9.784;2023-05-23T09:38:39;26.83;;;19.10;;
6255;SDS011;3161;48.794;9.784;2023-05-23T09:41:08;22.03;;;17.00;;
6255;SDS011;3161;48.794;9.784;2023-05-23T09:43:39;28.27;;;17.27;;
6255;SDS011;3161;48.794;9.784;2023-05-23T09:46:20;16.37;;;13.90;;
6255;SDS011;3161;48.794;9.784;2023-05-23T09:48:48;16.90;;;14.37;;
6255;SDS011;3161;48.794;9.784;2023-05-23T09:51:20;15.77;;;12.40;;
6255;SDS011;3161;48.794;9.784;2023-05-23T09:53:49;16.40;;;12.90;;
6255;SDS011;3161;48.794;9.784;2023-05-23T09:56:18;15.80;;;11.93;;
6255;SDS011;3161;48.794;9.784;2023-05-23T09:58:48;17.70;;;12.10;;
6255;SDS011;3161;48.794;9.784;2023-05-23T10:01:16;14.50;;;11.50;;
6255;SDS011;3161;48.794;9.784;2023-05-23T10:03:45;14.63;;;11.77;;
6255;SDS011;3161;48.794;9.784;2023-05-23T10:09:01;14.10;;;10.83;;
6255;SDS011;3161;48.794;9.784;2023-05-23T10:14:21;11.73;;;10.63;;
6255;SDS011;3161;48.794;9.784;2023-05-23T10:16:54;14.13;;;11.67;;
6255;SDS011;3161;48.794;9.784;2023-05-23T10:19:30;14.37;;;11.40;;
6255;SDS011;3161;48.794;9.784;2023-05-23T10:22:02;14.27;;;12.10;;
6255;SDS011;3161;48.794;9.784;2023-05-23T10:24:32;12.37;;;11.03;;
6255;SDS011;3161;48.794;9.784;2023-05-23T10:27:01;11.97;;;10.20;;
6255;SDS011;3161;48.794;9.784;2023-05-23T10:29:29;11.23;;;10.13;;
6255;SDS011;3161;48.794;9.784;2023-05-23T10:31:58;12.87;;;10.30;;
6255;SDS011;3161;48.794;9.784;2023-05-23T10:37:01;15.00;;;11.83;;
6255;SDS011;3161;48.794;9.784;2023-05-23T10:42:28;12.63;;;10.13;;
6255;SDS011;3161;48.794;9.784;2023-05-23T10:45:15;12.60;;;9.20;;
6255;SDS011;3161;48.794;9.784;2023-05-23T10:47:47;14.40;;;10.20;;
6255;SDS011;3161;48.794;9.784;2023-05-23T10:50:29;16.47;;;9.67;;
6255;SDS011;3161;48.794;9.784;2023-05-23T10:53:02;14.53;;;8.63;;
6255;SDS011;3161;48.794;9.784;2023-05-23T10:55:37;11.67;;;9.43;;
6255;SDS011;3161;48.794;9.784;2023-05-23T11:00:49;11.73;;;8.80;;
6255;SDS011;3161;48.794;9.784;2023-05-23T11:03:31;15.67;;;8.40;;
6255;SDS011;3161;48.794;9.784;2023-05-23T11:06:00;14.70;;;8.97;;
6255;SDS011;3161;48.794;9.784;2023-05-23T11:08:36;10.90;;;8.43;;
6255;SDS011;3161;48.794;9.784;2023-05-23T11:11:06;11.70;;;8.40;;
6255;SDS011;3161;48.794;9.784;2023-05-23T11:16:28;8.60;;;7.70;;
6255;SDS011;3161;48.794;9.784;2023-05-23T11:21:51;11.03;;;8.50;;
6255;SDS011;3161;48.794;9.784;2023-05-23T11:24:20;13.03;;;8.00;;
6255;SDS011;3161;48.794;9.784;2023-05-23T11:26:52;13.47;;;8.87;;
6255;SDS011;3161;48.794;9.784;2023-05-23T11:29:26;12.47;;;9.00;;
6255;SDS011;3161;48.794;9.784;2023-05-23T11:31:54;9.70;;;8.03;;
6255;SDS011;3161;48.794;9.784;2023-05-23T11:34:25;13.13;;;8.27;;
6255;SDS011;3161;48.794;9.784;2023-05-23T11:36:56;11.13;;;8.23;;
6255;SDS011;3161;48.794;9.784;2023-05-23T11:39:23;10.73;;;9.37;;
6255;SDS011;3161;48.794;9.784;2023-05-23T11:41:58;10.53;;;9.43;;
6255;SDS011;3161;48.794;9.784;2023-05-23T11:44:26;10.00;;;9.00;;
6255;SDS011;3161;48.794;9.784;2023-05-23T11:47:00;11.77;;;9.10;;
6255;SDS011;3161;48.794;9.784;2023-05-23T11:49:29;12.07;;;9.77;;
6255;SDS011;3161;48.794;9.784;2023-05-23T11:51:57;15.33;;;9.60;;
6255;SDS011;3161;48.794;9.784;2023-05-23T11:54:27;9.93;;;8.93;;
6255;SDS011;3161;48.794;9.784;2023-05-23T11:56:55;9.83;;;8.90;;
6255;SDS011;3161;48.794;9.784;2023-05-23T11:59:23;10.50;;;9.50;;
6255;SDS011;3161;48.794;9.784;2023-05-23T12:01:53;12.27;;;9.70;;
6255;SDS011;3161;48.794;9.784;2023-05-23T12:04:21;10.33;;;9.33;;
6255;SDS011;3161;48.794;9.784;2023-05-23T12:06:51;11.47;;;9.13;;
6255;SDS011;3161;48.794;9.784;2023-05-23T12:09:19;10.63;;;8.70;;
6255;SDS011;3161;48.794;9.784;2023-05-23T12:11:47;12.20;;;8.13;;
6255;SDS011;3161;48.794;9.784;2023-05-23T12:14:16;11.18;;;8.60;;
6255;SDS011;3161;48.794;9.784;2023-05-23T12:16:45;10.58;;;7.47;;
6255;SDS011;3161;48.794;9.784;2023-05-23T12:19:13;9.67;;;7.80;;
6255;SDS011;3161;48.794;9.784;2023-05-23T12:21:46;8.85;;;7.33;;
6255;SDS011;3161;48.794;9.784;2023-05-23T12:24:18;7.25;;;6.55;;
6255;SDS011;3161;48.794;9.784;2023-05-23T12:29:20;12.70;;;8.55;;
6255;SDS011;3161;48.794;9.784;2023-05-23T12:31:50;6.90;;;5.65;;
6255;SDS011;3161;48.794;9.784;2023-05-23T12:34:18;6.05;;;5.50;;
6255;SDS011;3161;48.794;9.784;2023-05-23T12:36:46;17.05;;;8.28;;
6255;SDS011;3161;48.794;9.784;2023-05-23T12:39:14;6.67;;;5.47;;
6255;SDS011;3161;48.794;9.784;2023-05-23T12:41:43;5.30;;;4.87;;
6255;SDS011;3161;48.794;9.784;2023-05-23T12:44:14;5.95;;;5.30;;
6255;SDS011;3161;48.794;9.784;2023-05-23T12:46:43;6.72;;;5.15;;
6255;SDS011;3161;48.794;9.784;2023-05-23T12:49:11;5.12;;;4.62;;
6255;SDS011;3161;48.794;9.784;2023-05-23T12:51:39;6.12;;;5.33;;
6255;SDS011;3161;48.794;9.784;2023-05-23T12:54:07;9.85;;;5.30;;
6255;SDS011;3161;48.794;9.784;2023-05-23T12:56:35;5.58;;;5.08;;
6255;SDS011;3161;48.794;9.784;2023-05-23T12:59:03;11.48;;;5.15;;
6255;SDS011;3161;48.794;9.784;2023-05-23T13:01:30;10.70;;;5.33;;
6255;SDS011;3161;48.794;9.784;2023-05-23T13:03:59;4.47;;;4.08;;
6255;SDS011;3161;48.794;9.784;2023-05-23T13:06:27;5.78;;;5.20;;
6255;SDS011;3161;48.794;9.784;2023-05-23T13:08:56;5.65;;;5.08;;
6255;SDS011;3161;48.794;9.784;2023-05-23T13:11:23;5.28;;;4.58;;
6255;SDS011;3161;48.794;9.784;2023-05-23T13:13:51;7.72;;;4.87;;
6255;SDS011;3161;48.794;9.784;2023-05-23T13:16:19;5.15;;;4.70;;
6255;SDS011;3161;48.794;9.784;2023-05-23T13:18:46;4.92;;;4.50;;
6255;SDS011;3161;48.794;9.784;2023-05-23T13:21:14;7.42;;;4.30;;
6255;SDS011;3161;48.794;9.784;2023-05-23T13:23:41;4.95;;;4.55;;
6255;SDS011;3161;48.794;9.784;2023-05-23T13:26:09;5.17;;;4.70;;
6255;SDS011;3161;48.794;9.784;2023-05-23T13:28:36;5.10;;;4.50;;
6255;SDS011;3161;48.794;9.784;2023-05-23T13:31:04;4.67;;;4.15;;
6255;SDS011;3161;48.794;9.784;2023-05-23T13:33:32;5.10;;;4.60;;
6255;SDS011;3161;48.794;9.784;2023-05-23T13:35:59;6.70;;;4.83;;
6255;SDS011;3161;48.794;9.784;2023-05-23T13:38:27;5.10;;;4.60;;
6255;SDS011;3161;48.794;9.784;2023-05-23T13:40:56;5.97;;;4.87;;
6255;SDS011;3161;48.794;9.784;2023-05-23T13:43:24;4.95;;;4.55;;
6255;SDS011;3161;48.794;9.784;2023-05-23T13:45:51;5.00;;;4.60;;
6255;SDS011;3161;48.794;9.784;2023-05-23T13:48:19;6.92;;;5.45;;
6255;SDS011;3161;48.794;9.784;2023-05-23T13:50:46;4.85;;;4.40;;
6255;SDS011;3161;48.794;9.784;2023-05-23T13:53:14;5.87;;;4.78;;
6255;SDS011;3161;48.794;9.784;2023-05-23T13:55:42;6.67;;;4.67;;
6255;SDS011;3161;48.794;9.784;2023-05-23T13:58:13;4.90;;;4.10;;
6255;SDS011;3161;48.794;9.784;2023-05-23T14:00:40;8.47;;;4.73;;
6255;SDS011;3161;48.794;9.784;2023-05-23T14:03:08;5.00;;;4.60;;
6255;SDS011;3161;48.794;9.784;2023-05-23T14:05:36;4.43;;;4.03;;
6255;SDS011;3161;48.794;9.784;2023-05-23T14:08:04;4.83;;;3.73;;
6255;SDS011;3161;48.794;9.784;2023-05-23T14:10:31;4.20;;;3.80;;
6255;SDS011;3161;48.794;9.784;2023-05-23T14:12:59;3.60;;;3.40;;
6255;SDS011;3161;48.794;9.784;2023-05-23T14:15:26;3.53;;;3.23;;
6255;SDS011;3161;48.794;9.784;2023-05-23T14:17:54;3.92;;;3.52;;
6255;SDS011;3161;48.794;9.784;2023-05-23T14:20:22;3.30;;;3.10;;
6255;SDS011;3161;48.794;9.784;2023-05-23T14:22:50;3.10;;;2.90;;
6255;SDS011;3161;48.794;9.784;2023-05-23T14:25:18;4.80;;;3.47;;
6255;SDS011;3161;48.794;9.784;2023-05-23T14:27:45;5.83;;;3.17;;
6255;SDS011;3161;48.794;9.784;2023-05-23T14:30:13;2.72;;;2.52;;
6255;SDS011;3161;48.794;9.784;2023-05-23T14:32:41;2.70;;;2.40;;
6255;SDS011;3161;48.794;9.784;2023-05-23T14:35:09;3.40;;;3.10;;
6255;SDS011;3161;48.794;9.784;2023-05-23T14:37:37;6.77;;;3.10;;
6255;SDS011;3161;48.794;9.784;2023-05-23T14:40:05;2.87;;;2.67;;
6255;SDS011;3161;48.794;9.784;2023-05-23T14:42:35;2.83;;;2.63;;
6255;SDS011;3161;48.794;9.784;2023-05-23T14:45:02;3.17;;;2.80;;
6255;SDS011;3161;48.794;9.784;2023-05-23T14:47:31;5.30;;;2.50;;
6255;SDS011;3161;48.794;9.784;2023-05-23T14:49:58;2.67;;;2.47;;
6255;SDS011;3161;48.794;9.784;2023-05-23T14:52:26;5.23;;;2.70;;
6255;SDS011;3161;48.794;9.784;2023-05-23T14:54:54;2.60;;;2.40;;
6255;SDS011;3161;48.794;9.784;2023-05-23T14:57:21;2.60;;;2.40;;
6255;SDS011;3161;48.794;9.784;2023-05-23T14:59:49;2.30;;;2.20;;
6255;SDS011;3161;48.794;9.784;2023-05-23T15:02:17;2.20;;;2.10;;
6255;SDS011;3161;48.794;9.784;2023-05-23T15:04:44;2.10;;;2.00;;
6255;SDS011;3161;48.794;9.784;2023-05-23T15:07:12;2.17;;;2.08;;
6255;SDS011;3161;48.794;9.784;2023-05-23T15:09:42;2.60;;;2.40;;
6255;SDS011;3161;48.794;9.784;2023-05-23T15:12:11;2.97;;;2.40;;
6255;SDS011;3161;48.794;9.784;2023-05-23T15:14:40;2.20;;;2.10;;
6255;SDS011;3161;48.794;9.784;2023-05-23T15:17:08;2.20;;;2.10;;
6255;SDS011;3161;48.794;9.784;2023-05-23T15:19:37;2.50;;;2.30;;
6255;SDS011;3161;48.794;9.784;2023-05-23T15:22:07;2.87;;;1.87;;
6255;SDS011;3161;48.794;9.784;2023-05-23T15:24:34;2.33;;;2.23;;
6255;SDS011;3161;48.794;9.784;2023-05-23T15:27:02;2.30;;;1.80;;
6255;SDS011;3161;48.794;9.784;2023-05-23T15:29:30;3.03;;;2.20;;
6255;SDS011;3161;48.794;9.784;2023-05-23T15:31:59;2.43;;;2.20;;
6255;SDS011;3161;48.794;9.784;2023-05-23T15:34:26;3.80;;;2.10;;
6255;SDS011;3161;48.794;9.784;2023-05-23T15:36:54;3.20;;;2.20;;
6255;SDS011;3161;48.794;9.784;2023-05-23T15:39:21;3.23;;;2.70;;
6255;SDS011;3161;48.794;9.784;2023-05-23T15:41:49;2.90;;;2.70;;
6255;SDS011;3161;48.794;9.784;2023-05-23T15:44:16;4.33;;;2.37;;
6255;SDS011;3161;48.794;9.784;2023-05-23T15:46:46;4.13;;;2.50;;